createdAt,value
2018-09-29T00:01:54.463Z,9.40
2018-09-29T00:04:22.836Z,9.40
2018-09-29T00:06:51.136Z,9.30
2018-09-29T00:09:19.443Z,9.30
2018-09-29T00:11:47.747Z,9.30
2018-09-29T00:14:16.082Z,9.30
2018-09-29T00:16:44.381Z,9.30
2018-09-29T00:19:12.690Z,9.30
2018-09-29T00:21:40.995Z,9.20
2018-09-29T00:24:09.286Z,9.20
2018-09-29T00:26:37.604Z,9.20
2018-09-29T00:29:05.904Z,9.20
2018-09-29T00:31:34.227Z,9.20
2018-09-29T00:34:02.527Z,9.20
2018-09-29T00:36:30.850Z,9.10
2018-09-29T00:38:59.144Z,9.10
2018-09-29T00:41:27.471Z,9.10
2018-09-29T00:43:55.776Z,9.00
2018-09-29T00:46:24.092Z,9.00
2018-09-29T00:48:52.392Z,9.00
2018-09-29T00:51:20.693Z,9.00
2018-09-29T00:53:48.992Z,9.00
2018-09-29T00:56:17.319Z,8.90
2018-09-29T00:58:45.624Z,8.90
2018-09-29T01:01:13.942Z,8.90
2018-09-29T01:03:42.259Z,8.90
2018-09-29T01:06:10.599Z,8.90
2018-09-29T01:08:38.952Z,8.80
2018-09-29T01:11:07.270Z,8.80
2018-09-29T01:13:35.578Z,8.80
2018-09-29T01:16:03.949Z,8.80
2018-09-29T01:18:32.256Z,8.80
2018-09-29T01:21:00.588Z,8.80
2018-09-29T01:23:28.902Z,8.70
2018-09-29T01:25:57.224Z,8.70
2018-09-29T01:28:25.535Z,8.70
2018-09-29T01:30:53.864Z,8.70
2018-09-29T01:33:22.193Z,8.60
2018-09-29T01:35:50.521Z,8.60
2018-09-29T01:38:18.837Z,8.60
2018-09-29T01:40:47.197Z,8.60
2018-09-29T01:43:15.499Z,8.60
2018-09-29T01:45:43.812Z,8.60
2018-09-29T01:48:12.135Z,8.50
2018-09-29T01:50:40.446Z,8.50
2018-09-29T01:53:08.736Z,8.50
2018-09-29T01:55:37.093Z,8.50
2018-09-29T01:58:05.412Z,8.50
2018-09-29T02:00:33.723Z,8.50
2018-09-29T02:03:17.372Z,8.40
2018-09-29T02:05:45.717Z,8.40
2018-09-29T02:08:14.023Z,8.40
2018-09-29T02:10:42.339Z,8.40
2018-09-29T02:13:10.651Z,8.30
2018-09-29T02:15:38.963Z,8.30
2018-09-29T02:18:07.306Z,8.30
2018-09-29T02:20:35.642Z,8.30
2018-09-29T02:23:03.969Z,8.30
2018-09-29T02:25:32.284Z,8.20
2018-09-29T02:28:00.604Z,8.20
2018-09-29T02:30:28.902Z,8.20
2018-09-29T02:32:57.217Z,8.10
2018-09-29T02:35:25.530Z,8.00
2018-09-29T02:37:53.853Z,8.00
2018-09-29T02:40:22.148Z,7.90
2018-09-29T02:42:50.499Z,7.90
2018-09-29T02:45:18.792Z,7.80
2018-09-29T02:47:47.102Z,7.80
2018-09-29T02:50:15.391Z,7.80
2018-09-29T02:52:43.712Z,7.70
2018-09-29T02:55:12.000Z,7.70
2018-09-29T02:57:40.315Z,7.60
2018-09-29T03:00:08.610Z,7.60
2018-09-29T03:02:36.932Z,7.60
2018-09-29T03:05:05.248Z,7.50
2018-09-29T03:07:33.632Z,7.50
2018-09-29T03:10:01.941Z,7.50
2018-09-29T03:12:30.255Z,7.40
2018-09-29T03:14:58.548Z,7.40
2018-09-29T03:17:26.871Z,7.40
2018-09-29T03:19:55.160Z,7.30
2018-09-29T03:22:23.475Z,7.30
2018-09-29T03:24:51.811Z,7.20
2018-09-29T03:27:20.132Z,7.20
2018-09-29T03:29:48.458Z,7.10
2018-09-29T03:32:16.771Z,7.10
2018-09-29T03:34:45.067Z,7.00
2018-09-29T03:37:13.390Z,7.00
2018-09-29T03:39:41.688Z,7.00
2018-09-29T03:42:10.046Z,6.90
2018-09-29T03:44:38.348Z,6.90
2018-09-29T03:47:07.040Z,6.90
2018-09-29T03:49:35.333Z,6.80
2018-09-29T03:52:03.636Z,6.80
2018-09-29T03:54:32.030Z,6.80
2018-09-29T03:57:00.353Z,6.80
2018-09-29T03:59:28.823Z,6.70
2018-09-29T04:01:57.166Z,6.70
2018-09-29T04:04:25.458Z,6.70
2018-09-29T04:06:53.779Z,6.60
2018-09-29T04:09:22.099Z,6.60
2018-09-29T04:11:50.396Z,6.50
2018-09-29T04:14:18.712Z,6.50
2018-09-29T04:16:47.013Z,6.50
2018-09-29T04:19:15.337Z,6.40
2018-09-29T04:21:50.119Z,6.40
2018-09-29T04:24:19.064Z,6.30
2018-09-29T04:26:47.371Z,6.30
2018-09-29T04:29:16.740Z,6.30
2018-09-29T04:31:45.073Z,6.30
2018-09-29T04:34:14.058Z,6.30
2018-09-29T04:36:42.989Z,6.30
2018-09-29T04:39:12.733Z,6.20
2018-09-29T04:41:41.080Z,6.20
2018-09-29T04:44:10.087Z,6.20
2018-09-29T04:46:38.651Z,6.20
2018-09-29T04:49:07.154Z,6.20
2018-09-29T04:51:35.536Z,6.10
2018-09-29T04:54:03.858Z,6.10
2018-09-29T04:56:32.784Z,6.00
2018-09-29T04:59:01.143Z,6.00
2018-09-29T05:01:29.443Z,6.00
2018-09-29T05:03:57.751Z,6.00
2018-09-29T05:06:26.233Z,5.90
2018-09-29T05:08:54.587Z,5.90
2018-09-29T05:11:22.884Z,5.90
2018-09-29T05:13:51.311Z,5.90
2018-09-29T05:16:19.599Z,5.90
2018-09-29T05:18:47.926Z,5.80
2018-09-29T05:21:16.340Z,5.80
2018-09-29T05:23:44.779Z,5.80
2018-09-29T05:26:13.094Z,5.80
2018-09-29T05:28:41.475Z,5.80
2018-09-29T05:31:09.775Z,5.80
2018-09-29T05:33:38.088Z,5.80
2018-09-29T05:36:06.376Z,5.80
2018-09-29T05:38:34.757Z,5.80
2018-09-29T05:41:03.028Z,5.80
2018-09-29T05:43:31.433Z,5.80
2018-09-29T05:45:59.748Z,5.80
2018-09-29T05:48:28.039Z,5.80
2018-09-29T05:50:56.509Z,5.80
2018-09-29T05:53:24.828Z,5.70
2018-09-29T05:55:53.229Z,5.70
2018-09-29T05:58:21.571Z,5.70
2018-09-29T06:00:49.880Z,5.70
2018-09-29T06:03:18.172Z,5.70
2018-09-29T06:05:46.522Z,5.70
2018-09-29T06:08:14.802Z,5.80
2018-09-29T06:10:43.129Z,5.80
2018-09-29T06:13:11.443Z,5.80
2018-09-29T06:15:39.745Z,5.80
2018-09-29T06:18:08.036Z,5.80
2018-09-29T06:20:36.357Z,5.90
2018-09-29T06:23:04.647Z,5.90
2018-09-29T06:25:32.965Z,5.90
2018-09-29T06:28:01.295Z,5.90
2018-09-29T06:30:29.603Z,6.00
2018-09-29T06:32:57.924Z,6.00
2018-09-29T06:35:26.252Z,6.00
2018-09-29T06:37:54.544Z,6.00
2018-09-29T06:40:22.870Z,6.00
2018-09-29T06:42:51.184Z,6.10
2018-09-29T06:45:19.491Z,6.10
2018-09-29T06:47:47.870Z,6.10
2018-09-29T06:50:16.131Z,6.10
2018-09-29T06:52:44.429Z,6.10
2018-09-29T06:55:12.776Z,6.20
2018-09-29T06:57:41.260Z,6.20
2018-09-29T07:00:09.600Z,6.30
2018-09-29T07:02:37.895Z,6.30
2018-09-29T07:05:06.224Z,6.40
2018-09-29T07:07:34.520Z,6.40
2018-09-29T07:10:02.875Z,6.50
2018-09-29T07:12:31.204Z,6.50
2018-09-29T07:14:59.620Z,6.60
2018-09-29T07:17:27.924Z,6.60
2018-09-29T07:19:56.295Z,6.70
2018-09-29T07:22:24.619Z,6.70
2018-09-29T07:24:53.059Z,6.80
2018-09-29T07:27:21.389Z,6.90
2018-09-29T07:29:49.730Z,6.90
2018-09-29T07:32:18.044Z,7.00
2018-09-29T07:34:46.360Z,7.10
2018-09-29T07:37:14.664Z,7.20
2018-09-29T07:39:42.979Z,7.20
2018-09-29T07:42:11.301Z,7.30
2018-09-29T07:44:39.618Z,7.30
2018-09-29T07:47:07.922Z,7.40
2018-09-29T07:49:36.240Z,7.50
2018-09-29T07:52:04.568Z,7.50
2018-09-29T07:54:32.860Z,7.60
2018-09-29T07:57:01.348Z,7.70
2018-09-29T07:59:29.705Z,7.70
2018-09-29T08:01:58.127Z,7.80
2018-09-29T08:04:26.450Z,7.80
2018-09-29T08:06:55.196Z,7.90
2018-09-29T08:09:23.502Z,8.00
2018-09-29T08:11:52.632Z,8.00
2018-09-29T08:14:20.946Z,8.10
2018-09-29T08:16:49.265Z,8.20
2018-09-29T08:19:17.573Z,8.30
2018-09-29T08:21:45.896Z,8.30
2018-09-29T08:24:14.258Z,8.40
2018-09-29T08:26:42.564Z,8.50
2018-09-29T08:29:11.907Z,8.60
2018-09-29T08:31:40.247Z,8.70
2018-09-29T08:34:08.640Z,8.80
2018-09-29T08:36:36.959Z,8.90
2018-09-29T08:39:07.385Z,9.00
2018-09-29T08:41:35.754Z,9.10
2018-09-29T08:44:04.060Z,9.10
2018-09-29T08:46:32.418Z,9.30
2018-09-29T08:49:00.731Z,9.30
2018-09-29T08:51:29.054Z,9.50
2018-09-29T08:53:57.355Z,9.50
2018-09-29T08:56:25.713Z,9.60
2018-09-29T08:58:54.057Z,9.70
2018-09-29T09:01:22.367Z,9.80
2018-09-29T09:03:50.747Z,10.00
2018-09-29T09:06:19.135Z,10.10
2018-09-29T09:08:47.436Z,10.20
2018-09-29T09:11:15.772Z,10.30
2018-09-29T09:13:44.067Z,10.40
2018-09-29T09:16:12.392Z,10.50
2018-09-29T09:18:40.788Z,10.60
2018-09-29T09:21:09.131Z,10.70
2018-09-29T09:23:37.434Z,10.80
2018-09-29T09:26:05.863Z,10.90
2018-09-29T09:28:34.307Z,11.00
2018-09-29T09:31:02.639Z,11.10
2018-09-29T09:33:30.979Z,11.30
2018-09-29T09:35:59.300Z,11.30
2018-09-29T09:38:27.615Z,11.40
2018-09-29T09:40:55.952Z,11.50
2018-09-29T09:43:24.317Z,11.60
2018-09-29T09:45:52.693Z,11.70
2018-09-29T09:48:21.036Z,11.80
2018-09-29T09:50:49.456Z,11.90
2018-09-29T09:53:17.750Z,12.00
2018-09-29T09:55:46.061Z,12.10
2018-09-29T09:58:14.374Z,12.10
2018-09-29T10:00:48.204Z,12.20
2018-09-29T10:03:26.167Z,12.30
2018-09-29T10:05:54.483Z,12.40
2018-09-29T10:08:22.783Z,12.50
2018-09-29T10:10:51.098Z,12.60
2018-09-29T10:13:19.399Z,12.60
2018-09-29T10:15:47.715Z,12.80
2018-09-29T10:18:16.027Z,12.80
2018-09-29T10:20:44.329Z,12.90
2018-09-29T10:23:12.645Z,13.00
2018-09-29T10:25:40.959Z,13.10
2018-09-29T10:28:09.288Z,13.20
2018-09-29T10:30:37.615Z,13.30
2018-09-29T10:33:05.948Z,13.30
2018-09-29T10:35:34.263Z,13.40
2018-09-29T10:38:02.594Z,13.50
2018-09-29T10:40:31.057Z,13.60
2018-09-29T10:42:59.392Z,13.70
2018-09-29T10:45:27.691Z,13.80
2018-09-29T10:47:56.007Z,13.80
2018-09-29T10:50:24.368Z,13.90
2018-09-29T10:52:52.701Z,13.90
2018-09-29T10:55:21.003Z,14.00
2018-09-29T10:57:49.347Z,14.10
2018-09-29T11:00:17.656Z,14.20
2018-09-29T11:02:46.048Z,14.30
2018-09-29T11:05:14.311Z,14.40
2018-09-29T11:07:42.641Z,14.50
2018-09-29T11:10:10.931Z,14.70
2018-09-29T11:12:39.252Z,14.90
2018-09-29T11:15:13.890Z,15.10
2018-09-29T11:17:42.208Z,15.30
2018-09-29T11:20:10.508Z,15.50
2018-09-29T11:22:38.831Z,15.60
2018-09-29T11:25:07.148Z,15.80
2018-09-29T11:27:35.501Z,15.90
2018-09-29T11:30:03.812Z,16.00
2018-09-29T11:32:32.163Z,16.10
2018-09-29T11:35:00.462Z,16.20
2018-09-29T11:37:28.781Z,16.40
2018-09-29T11:39:57.075Z,16.50
2018-09-29T11:42:25.413Z,16.60
2018-09-29T11:44:53.919Z,16.90
2018-09-29T11:47:22.215Z,17.10
2018-09-29T11:49:50.509Z,17.20
2018-09-29T11:52:18.823Z,17.30
2018-09-29T11:54:47.136Z,17.50
2018-09-29T11:57:15.458Z,17.60
2018-09-29T11:59:43.760Z,17.80
2018-09-29T12:02:12.112Z,17.90
2018-09-29T12:04:40.392Z,18.00
2018-09-29T12:07:08.779Z,18.10
2018-09-29T12:09:37.032Z,18.20
2018-09-29T12:12:05.348Z,18.30
2018-09-29T12:14:33.646Z,18.50
2018-09-29T12:17:01.977Z,18.60
2018-09-29T12:19:30.276Z,18.80
2018-09-29T12:21:58.596Z,19.00
2018-09-29T12:24:26.891Z,19.20
2018-09-29T12:26:55.217Z,19.30
2018-09-29T12:29:23.523Z,19.40
2018-09-29T12:31:51.876Z,19.40
2018-09-29T12:34:20.168Z,19.50
2018-09-29T12:36:48.496Z,19.60
2018-09-29T12:39:16.822Z,19.60
2018-09-29T12:41:45.139Z,19.60
2018-09-29T12:44:13.498Z,19.70
2018-09-29T12:46:41.809Z,19.70
2018-09-29T12:49:10.133Z,19.80
2018-09-29T12:51:38.515Z,19.80
2018-09-29T12:54:06.827Z,19.90
2018-09-29T12:56:35.136Z,20.00
2018-09-29T12:59:03.532Z,20.00
2018-09-29T13:01:31.781Z,20.00
2018-09-29T13:04:00.124Z,20.00
2018-09-29T13:06:28.468Z,20.00
2018-09-29T13:08:56.814Z,20.10
2018-09-29T13:11:25.120Z,20.10
2018-09-29T13:13:53.480Z,20.10
2018-09-29T13:16:21.811Z,20.20
2018-09-29T13:18:50.135Z,20.20
2018-09-29T13:21:18.446Z,20.30
2018-09-29T13:23:46.774Z,20.30
2018-09-29T13:26:15.175Z,20.30
2018-09-29T13:28:43.514Z,20.30
2018-09-29T13:31:11.837Z,20.40
2018-09-29T13:33:40.235Z,20.30
2018-09-29T13:36:12.830Z,20.40
2018-09-29T13:38:41.160Z,20.40
2018-09-29T13:41:09.487Z,20.40
2018-09-29T13:43:37.823Z,20.50
2018-09-29T13:46:06.117Z,20.50
2018-09-29T13:48:34.435Z,20.50
2018-09-29T13:51:02.754Z,20.40
2018-09-29T13:53:31.117Z,20.40
2018-09-29T13:55:59.414Z,20.40
2018-09-29T13:58:27.810Z,20.30
2018-09-29T14:00:56.119Z,20.20
2018-09-29T14:03:24.472Z,20.00
2018-09-29T14:05:52.792Z,20.00
2018-09-29T14:08:21.253Z,19.90
2018-09-29T14:10:49.599Z,19.80
2018-09-29T14:13:17.924Z,19.80
2018-09-29T14:15:46.315Z,19.90
2018-09-29T14:18:14.723Z,19.90
2018-09-29T14:20:43.033Z,20.00
2018-09-29T14:23:11.445Z,20.00
2018-09-29T14:25:39.747Z,20.10
2018-09-29T14:28:08.067Z,20.00
2018-09-29T14:30:36.380Z,20.00
2018-09-29T14:33:04.691Z,19.90
2018-09-29T14:35:32.995Z,19.90
2018-09-29T14:38:01.312Z,19.80
2018-09-29T14:40:29.617Z,19.70
2018-09-29T14:42:57.957Z,19.70
2018-09-29T14:45:26.251Z,19.70
2018-09-29T14:47:54.593Z,19.70
2018-09-29T14:50:22.924Z,19.70
2018-09-29T14:52:51.223Z,19.70
2018-09-29T14:55:19.539Z,19.60
2018-09-29T14:57:47.863Z,19.50
2018-09-29T15:00:16.181Z,19.40
2018-09-29T15:02:44.480Z,19.20
2018-09-29T15:05:12.800Z,19.10
2018-09-29T15:07:41.095Z,19.00
2018-09-29T15:10:09.489Z,18.90
2018-09-29T15:12:37.756Z,18.80
2018-09-29T15:15:06.852Z,18.70
2018-09-29T15:17:35.303Z,18.60
2018-09-29T15:20:03.725Z,18.50
2018-09-29T15:22:32.040Z,18.40
2018-09-29T15:25:00.364Z,18.30
2018-09-29T15:27:28.661Z,18.30
2018-09-29T15:29:56.985Z,18.20
2018-09-29T15:32:25.292Z,18.20
2018-09-29T15:34:53.645Z,18.00
2018-09-29T15:37:21.952Z,17.90
2018-09-29T15:39:50.275Z,17.80
2018-09-29T15:42:18.615Z,17.70
2018-09-29T15:44:46.939Z,17.60
2018-09-29T15:47:15.304Z,17.60
2018-09-29T15:49:43.647Z,17.50
2018-09-29T15:52:11.947Z,17.40
2018-09-29T15:54:40.268Z,17.30
2018-09-29T15:57:08.983Z,17.20
2018-09-29T15:59:37.296Z,17.10
2018-09-29T16:02:05.619Z,17.10
2018-09-29T16:04:33.957Z,17.00
2018-09-29T16:07:02.453Z,16.90
2018-09-29T16:09:30.780Z,16.90
2018-09-29T16:11:59.168Z,16.80
2018-09-29T16:14:27.484Z,16.80
2018-09-29T16:16:55.786Z,16.70
2018-09-29T16:19:24.167Z,16.70
2018-09-29T16:21:52.476Z,16.70
2018-09-29T16:24:20.804Z,16.60
2018-09-29T16:26:49.128Z,16.50
2018-09-29T16:29:17.500Z,16.40
2018-09-29T16:31:45.832Z,16.30
2018-09-29T16:34:14.150Z,16.30
2018-09-29T16:36:42.443Z,16.20
2018-09-29T16:39:12.784Z,16.10
2018-09-29T16:41:41.272Z,16.00
2018-09-29T16:44:09.658Z,15.90
2018-09-29T16:46:37.969Z,15.80
2018-09-29T16:49:06.295Z,15.70
2018-09-29T16:51:34.642Z,15.60
2018-09-29T16:54:03.075Z,15.40
2018-09-29T16:56:31.389Z,15.30
2018-09-29T16:58:59.720Z,15.20
2018-09-29T17:01:28.021Z,15.10
2018-09-29T17:03:56.401Z,14.90
2018-09-29T17:06:24.676Z,14.80
2018-09-29T17:08:53.011Z,14.70
2018-09-29T17:11:21.327Z,14.60
2018-09-29T17:13:49.672Z,14.50
2018-09-29T17:16:17.988Z,14.40
2018-09-29T17:20:10.795Z,14.30
2018-09-29T17:22:39.107Z,14.10
2018-09-29T17:25:07.427Z,14.00
2018-09-29T17:27:35.752Z,13.90
2018-09-29T17:30:04.220Z,13.80
2018-09-29T17:32:32.666Z,13.80
2018-09-29T17:35:01.003Z,13.70
2018-09-29T17:37:29.354Z,13.60
2018-09-29T17:39:57.684Z,13.50
2018-09-29T17:42:26.011Z,13.40
2018-09-29T17:44:54.344Z,13.30
2018-09-29T17:47:22.645Z,13.20
2018-09-29T17:49:50.982Z,13.10
2018-09-29T17:52:19.363Z,13.00
2018-09-29T17:54:48.526Z,13.00
2018-09-29T17:57:17.092Z,12.90
2018-09-29T17:59:45.415Z,12.80
2018-09-29T18:02:13.716Z,12.70
2018-09-29T18:04:42.039Z,12.70
2018-09-29T18:07:10.344Z,12.60
2018-09-29T18:09:38.668Z,12.50
2018-09-29T18:12:07.031Z,12.50
2018-09-29T18:14:35.374Z,12.40
2018-09-29T18:17:03.672Z,12.40
2018-09-29T18:19:31.965Z,12.30
2018-09-29T18:22:00.312Z,12.30
2018-09-29T18:24:28.595Z,12.20
2018-09-29T18:26:56.915Z,12.20
2018-09-29T18:29:25.220Z,12.10
2018-09-29T18:31:53.537Z,12.00
2018-09-29T18:34:21.841Z,12.00
2018-09-29T18:39:24.785Z,11.90
2018-09-29T18:41:53.126Z,11.80
2018-09-29T18:44:21.432Z,11.70
2018-09-29T18:46:49.751Z,11.70
2018-09-29T18:49:18.049Z,11.70
2018-09-29T18:51:46.399Z,11.60
2018-09-29T18:54:14.680Z,11.50
2018-09-29T18:56:43.014Z,11.50
2018-09-29T18:59:11.326Z,11.40
2018-09-29T19:01:39.653Z,11.40
2018-09-29T19:04:07.955Z,11.30
2018-09-29T19:06:36.291Z,11.20
2018-09-29T19:09:06.641Z,11.20
2018-09-29T19:11:34.963Z,11.10
2018-09-29T19:14:03.279Z,11.10
2018-09-29T19:16:31.603Z,11.00
2018-09-29T19:18:59.912Z,11.00
2018-09-29T19:21:28.241Z,10.90
2018-09-29T19:23:56.541Z,10.90
2018-09-29T19:26:24.867Z,10.90
2018-09-29T19:28:53.250Z,10.90
2018-09-29T19:31:21.568Z,10.80
2018-09-29T19:33:49.912Z,10.80
2018-09-29T19:36:18.245Z,10.70
2018-09-29T19:38:46.565Z,10.70
2018-09-29T19:41:14.960Z,10.70
2018-09-29T19:43:43.255Z,10.70
2018-09-29T19:46:11.575Z,10.70
2018-09-29T19:48:39.874Z,10.60
2018-09-29T19:51:08.331Z,10.60
2018-09-29T19:53:36.635Z,10.60
2018-09-29T19:56:04.956Z,10.60
2018-09-29T19:58:33.309Z,10.50
2018-09-29T20:01:01.636Z,10.50
2018-09-29T20:03:29.965Z,10.40
2018-09-29T20:05:58.295Z,10.40
2018-09-29T20:08:26.607Z,10.40
2018-09-29T20:10:54.925Z,10.40
2018-09-29T20:13:23.223Z,10.30
2018-09-29T20:15:51.543Z,10.20
2018-09-29T20:18:19.850Z,10.20
2018-09-29T20:20:48.179Z,10.20
2018-09-29T20:23:16.472Z,10.10
2018-09-29T20:25:44.792Z,10.10
2018-09-29T20:28:13.102Z,10.00
2018-09-29T20:30:41.502Z,10.00
2018-09-29T20:33:09.745Z,10.00
2018-09-29T20:35:38.039Z,9.90
2018-09-29T20:38:06.355Z,9.90
2018-09-29T20:40:34.655Z,9.80
2018-09-29T20:43:03.007Z,9.80
2018-09-29T20:45:31.302Z,9.70
2018-09-29T20:47:59.630Z,9.70
2018-09-29T20:50:27.928Z,9.70
2018-09-29T20:52:56.239Z,9.60
2018-09-29T20:55:24.555Z,9.60
2018-09-29T20:57:52.874Z,9.60
2018-09-29T21:00:21.182Z,9.60
2018-09-29T21:02:49.499Z,9.60
2018-09-29T21:05:17.812Z,9.50
2018-09-29T21:07:47.276Z,9.50
2018-09-29T21:10:21.990Z,9.50
2018-09-29T21:12:50.343Z,9.50
2018-09-29T21:15:18.634Z,9.40
2018-09-29T21:17:46.955Z,9.40
2018-09-29T21:20:15.280Z,9.40
2018-09-29T21:22:44.020Z,9.30
2018-09-29T21:25:12.356Z,9.30
2018-09-29T21:27:40.726Z,9.30
2018-09-29T21:30:09.039Z,9.30
2018-09-29T21:32:37.359Z,9.20
2018-09-29T21:35:05.712Z,9.20
2018-09-29T21:37:34.040Z,9.20
2018-09-29T21:40:02.347Z,9.20
2018-09-29T21:42:30.789Z,9.10
2018-09-29T21:44:59.025Z,9.10
2018-09-29T21:47:27.367Z,9.00
2018-09-29T21:49:55.686Z,9.00
2018-09-29T21:52:24.063Z,9.00
2018-09-29T21:54:52.351Z,8.90
2018-09-29T21:57:20.672Z,8.90
2018-09-29T21:59:48.979Z,8.90
2018-09-29T22:02:17.300Z,8.80
2018-09-29T22:04:45.595Z,8.80
2018-09-29T22:07:13.920Z,8.80
2018-09-29T22:09:42.226Z,8.70
2018-09-29T22:12:10.547Z,8.70
2018-09-29T22:14:38.877Z,8.60
2018-09-29T22:17:07.200Z,8.60
2018-09-29T22:19:35.512Z,8.60
2018-09-29T22:22:03.853Z,8.60
2018-09-29T22:24:32.159Z,8.50
2018-09-29T22:27:00.520Z,8.50
2018-09-29T22:29:28.834Z,8.40
2018-09-29T22:31:57.274Z,8.40
2018-09-29T22:34:25.568Z,8.40
2018-09-29T22:36:53.909Z,8.30
2018-09-29T22:39:22.213Z,8.30
2018-09-29T22:41:50.561Z,8.30
2018-09-29T22:44:18.885Z,8.30
2018-09-29T22:46:47.244Z,8.20
2018-09-29T22:49:15.556Z,8.20
2018-09-29T22:51:43.903Z,8.20
2018-09-29T22:54:12.220Z,8.20
2018-09-29T22:56:40.532Z,8.20
2018-09-29T22:59:08.848Z,8.20
2018-09-29T23:01:37.147Z,8.10
2018-09-29T23:04:05.484Z,8.10
2018-09-29T23:06:33.795Z,8.10
2018-09-29T23:11:36.751Z,7.90
2018-09-29T23:14:05.083Z,7.90
2018-09-29T23:16:33.381Z,7.80
2018-09-29T23:19:01.727Z,7.80
2018-09-29T23:21:30.040Z,7.80
2018-09-29T23:23:58.359Z,7.80
2018-09-29T23:26:26.675Z,7.70
2018-09-29T23:28:55.009Z,7.70
2018-09-29T23:31:23.311Z,7.70
2018-09-29T23:33:51.644Z,7.70
2018-09-29T23:36:19.943Z,7.70
2018-09-29T23:38:48.260Z,7.60
2018-09-29T23:41:16.626Z,7.60
2018-09-29T23:43:44.924Z,7.60
2018-09-29T23:46:13.226Z,7.60
2018-09-29T23:48:41.544Z,7.60
2018-09-29T23:51:09.835Z,7.50
2018-09-29T23:53:38.142Z,7.50
2018-09-29T23:56:06.508Z,7.50
2018-09-29T23:58:34.839Z,7.50
